Daisy, Kentucky
Current Conditions -  °F | °C
As of 1:15 AM on Friday 19 Dec 2014 (Local Time) from KI35 Reporting Station
Overcast Overcast  
Wind Chill: 34°   Ceiling: 6500
Heat Index: 34°   Visibility: 10mi
Dew Point: 27°   Wind: 3mph
Humidity: 75%   Direction: 270°W
Pressure: 30.16"   Gusts: NA
Location:  37.1177°N, 83.0448°W
Report Text: KI35 190615Z AUTO 27003KT 10SM OVC065 01/M03 A3016 RMK AO1
Loading
Personal Weather Stations






























Interactive Weather Map New forecast layout! Learn more

10-Day Weather Forecast

Advertisements
Track Severe Weather on mobile